Time;durP1;ratioP1;P1;durP2;ratioP2;P2;SDS_P1;SDS_P2;PMS_P1;PMS_P2;Temp;Humidity;BMP_temperature;BMP_pressure;BME280_temperature;BME280_humidity;BME280_pressure;Samples;Min_cycle;Max_cycle;Signal;HPM_P1;HPM_P2
2023/01/06 00:01:10;;;;;;;;;;;;;;;12.14;65.88;101620.78;5054677;28;20303;-79
2023/01/06 00:03:57;;;;;;;;;;;;;;;12.08;65.68;101625.53;5048511;28;19917;-80
2023/01/06 00:06:42;;;;;;;;;;;;;;;12.11;65.85;101624.09;5059357;28;19921;-79
2023/01/06 00:09:26;;;;;;;;;;;;;;;12.10;66.10;101626.00;5056458;28;19916;-79
2023/01/06 00:12:11;;;;;;;;;;;;;;;12.03;65.38;101624.81;5059027;28;19917;-81
2023/01/06 00:14:55;;;;;;;;;;;;;;;12.05;66.01;101628.03;5054594;28;19916;-81
2023/01/06 00:17:40;;;;;;;;;;;;;;;12.05;66.04;101623.38;5057400;28;20304;-81
2023/01/06 00:20:24;;;;;;;;;;;;;;;12.04;65.98;101623.72;5062403;28;19916;-83
2023/01/06 00:23:08;;;;;;;;;;;;;;;12.04;66.24;101627.22;5062352;28;20387;-81
2023/01/06 00:25:53;;;;;;;;;;;;;;;12.02;66.15;101628.63;5061257;28;19921;-80
2023/01/06 00:28:37;;;;;;;;;;;;;;;12.08;66.91;101617.34;5064900;28;19917;-78
2023/01/06 00:31:22;;;;;;;;;;;;;;;11.99;65.92;101625.41;5065648;28;19916;-80
2023/01/06 00:34:06;;;;;;;;;;;;;;;11.94;65.48;101620.03;5064524;28;19916;-80
2023/01/06 00:36:51;;;;;;;;;;;;;;;11.92;64.99;101625.00;5067934;28;19925;-79
2023/01/06 00:39:35;;;;;;;;;;;;;;;11.97;65.58;101626.81;5065344;28;19917;-80
2023/01/06 00:42:21;;;;;;;;;;;;;;;11.97;65.15;101630.34;5061118;28;19917;-80
2023/01/06 00:45:05;;;;;;;;;;;;;;;11.91;64.95;101623.38;5060418;28;20510;-81
2023/01/06 00:47:50;;;;;;;;;;;;;;;11.89;64.80;101635.69;5061020;28;19921;-80
2023/01/06 00:50:35;;;;;;;;;;;;;;;11.85;64.41;101627.31;5060475;28;19916;-81
2023/01/06 00:53:19;;;;;;;;;;;;;;;11.84;64.05;101628.41;5064371;28;19916;-80
2023/01/06 00:56:04;;;;;;;;;;;;;;;11.80;64.03;101632.84;5053395;28;20525;-81
2023/01/06 00:58:49;;;;;;;;;;;;;;;11.81;63.78;101636.38;5059340;28;19921;-81
2023/01/06 01:01:33;;;;;;;;;;;;;;;11.86;64.32;101630.84;5059464;28;19924;-82
2023/01/06 01:07:34;;;;;;;;;;;;;;;11.79;63.65;101633.97;5057425;28;19925;-85
2023/01/06 01:10:18;;;;;;;;;;;;;;;11.76;62.73;101637.28;5035659;28;19917;-85
2023/01/06 01:13:04;;;;;;;;;;;;;;;11.72;62.69;101646.34;5044868;28;19931;-85
2023/01/06 01:15:48;;;;;;;;;;;;;;;11.70;62.31;101643.91;5049582;28;19916;-86
2023/01/06 01:18:34;;;;;;;;;;;;;;;11.67;62.28;101644.53;5069178;28;19921;-87
2023/01/06 01:21:18;;;;;;;;;;;;;;;11.67;62.33;101647.25;5067712;28;19917;-87
2023/01/06 01:24:04;;;;;;;;;;;;;;;11.65;62.46;101646.72;5066896;28;19917;-88
2023/01/06 01:26:49;;;;;;;;;;;;;;;11.63;62.10;101648.94;5043043;28;19917;-87
2023/01/06 01:29:34;;;;;;;;;;;;;;;11.68;62.80;101645.34;5052878;28;20400;-87
2023/01/06 01:32:19;;;;;;;;;;;;;;;11.66;62.33;101652.97;5072446;28;19917;-88
2023/01/06 01:35:09;;;;;;;;;;;;;;;11.72;63.83;101660.78;5042888;28;20360;-86
2023/01/06 01:37:53;;;;;;;;;;;;;;;11.69;62.48;101649.66;5068344;28;19920;-87
2023/01/06 01:40:38;;;;;;;;;;;;;;;11.65;62.41;101651.34;5042305;28;19917;-87
2023/01/06 01:43:22;;;;;;;;;;;;;;;11.63;61.74;101648.94;5070852;28;19917;-87
2023/01/06 01:46:07;;;;;;;;;;;;;;;11.65;61.60;101645.91;5043275;28;19917;-87
2023/01/06 01:48:53;;;;;;;;;;;;;;;11.62;61.82;101646.53;5037839;28;19921;-87
2023/01/06 01:51:41;;;;;;;;;;;;;;;11.59;61.95;101654.16;5061595;28;19917;-87
2023/01/06 01:54:27;;;;;;;;;;;;;;;11.66;62.54;101648.34;5042131;28;19917;-87
2023/01/06 01:57:18;;;;;;;;;;;;;;;11.72;63.81;101649.06;5022383;28;19925;-85
2023/01/06 02:00:05;;;;;;;;;;;;;;;11.78;65.77;101654.16;5041882;28;19917;-86
2023/01/06 02:02:57;;;;;;;;;;;;;;;11.79;65.03;101657.66;5019063;28;19917;-86
2023/01/06 02:05:44;;;;;;;;;;;;;;;11.71;63.75;101650.16;5061178;28;19921;-86
2023/01/06 02:08:36;;;;;;;;;;;;;;;11.74;64.46;101653.13;5067779;28;19917;-85
2023/01/06 02:11:22;;;;;;;;;;;;;;;11.78;65.36;101651.44;5069642;28;19917;-86
2023/01/06 02:14:09;;;;;;;;;;;;;;;11.79;65.49;101653.03;5064932;28;19917;-87
2023/01/06 02:17:13;;;;;;;;;;;;;;;11.83;66.61;101645.09;5038188;28;20380;-86
2023/01/06 02:20:16;;;;;;;;;;;;;;;11.88;67.65;101645.00;5043870;28;19917;-87
2023/01/06 02:23:04;;;;;;;;;;;;;;;11.87;66.60;101633.28;5045938;28;19917;-87
2023/01/06 02:26:00;;;;;;;;;;;;;;;11.89;66.71;101636.50;5068391;28;19917;-87
2023/01/06 02:28:56;;;;;;;;;;;;;;;11.89;65.59;101620.13;5055846;28;19918;-86
2023/01/06 02:31:59;;;;;;;;;;;;;;;11.92;66.46;101619.56;5043355;28;20017;-85
2023/01/06 02:34:48;;;;;;;;;;;;;;;11.96;67.09;101626.00;5039168;28;19918;-86
2023/01/06 02:37:51;;;;;;;;;;;;;;;11.94;66.30;101630.13;5038936;28;19921;-86
2023/01/06 02:40:56;;;;;;;;;;;;;;;11.94;66.14;101621.97;5070165;28;19917;-85
2023/01/06 02:43:40;;;;;;;;;;;;;;;11.91;65.10;101626.13;5070406;28;19920;-86
2023/01/06 02:46:51;;;;;;;;;;;;;;;11.85;63.97;101623.78;5065528;28;19917;-84
2023/01/06 02:49:41;;;;;;;;;;;;;;;11.82;63.86;101625.19;5061792;28;19917;-83
2023/01/06 02:52:41;;;;;;;;;;;;;;;11.85;64.24;101618.31;5066067;28;20380;-84
2023/01/06 02:55:32;;;;;;;;;;;;;;;11.87;64.14;101621.56;5068129;28;20372;-84
2023/01/06 02:58:17;;;;;;;;;;;;;;;11.88;64.96;101623.19;5063293;28;19921;-83
2023/01/06 03:01:07;;;;;;;;;;;;;;;11.95;68.77;101620.84;5033512;28;19917;-84
2023/01/06 03:03:52;;;;;;;;;;;;;;;12.00;68.51;101627.03;5034908;28;19921;-84
2023/01/06 03:06:43;;;;;;;;;;;;;;;11.85;63.95;101616.41;5062316;28;19917;-85
2023/01/06 03:09:33;;;;;;;;;;;;;;;11.90;66.70;101619.03;5063906;28;19917;-83
2023/01/06 03:12:41;;;;;;;;;;;;;;;11.93;67.07;101621.19;5034432;28;19917;-84
2023/01/06 03:15:25;;;;;;;;;;;;;;;11.76;61.47;101618.22;5039682;28;19917;-83
2023/01/06 03:18:11;;;;;;;;;;;;;;;11.69;61.42;101617.75;5034270;28;19921;-84
2023/01/06 03:20:58;;;;;;;;;;;;;;;11.62;60.96;101622.81;5018990;28;19917;-84
2023/01/06 03:23:44;;;;;;;;;;;;;;;11.65;62.96;101613.22;5067701;28;19917;-84
2023/01/06 03:26:28;;;;;;;;;;;;;;;11.73;65.04;101624.28;5034877;28;19917;-84
2023/01/06 03:29:14;;;;;;;;;;;;;;;11.56;60.25;101622.09;5032995;28;19917;-84
2023/01/06 03:32:14;;;;;;;;;;;;;;;11.55;61.34;101616.94;5019665;28;19918;-84
2023/01/06 03:34:58;;;;;;;;;;;;;;;11.60;62.62;101616.84;5022151;28;19917;-87
2023/01/06 03:38:08;;;;;;;;;;;;;;;11.66;64.09;101612.13;5023842;28;19921;-85
2023/01/06 03:41:11;;;;;;;;;;;;;;;11.67;63.80;101617.28;5043965;28;19925;-86
2023/01/06 03:43:59;;;;;;;;;;;;;;;11.76;65.94;101612.78;5067673;28;19925;-87
2023/01/06 03:46:49;;;;;;;;;;;;;;;11.77;66.81;101617.13;5065040;28;20296;-85
2023/01/06 03:49:42;;;;;;;;;;;;;;;11.72;64.76;101611.72;5045363;28;19925;-86
2023/01/06 03:52:29;;;;;;;;;;;;;;;11.59;61.76;101609.78;5044227;28;20280;-86
2023/01/06 03:55:19;;;;;;;;;;;;;;;11.53;61.30;101605.53;5066406;28;19917;-86
2023/01/06 03:58:05;;;;;;;;;;;;;;;11.60;63.17;101608.66;5036697;28;19921;-87
2023/01/06 04:00:50;;;;;;;;;;;;;;;11.56;62.14;101603.03;5072297;28;19917;-86
2023/01/06 04:03:35;;;;;;;;;;;;;;;11.58;63.18;101608.16;5045186;28;19917;-87
2023/01/06 04:06:21;;;;;;;;;;;;;;;11.60;64.01;101611.41;5067822;28;19917;-86
2023/01/06 04:09:06;;;;;;;;;;;;;;;11.65;66.27;101608.59;5025085;28;19918;-88
2023/01/06 04:15:02;;;;;;;;;;;;;;;11.85;71.78;101602.78;5018781;28;19922;-87
2023/01/06 04:17:47;;;;;;;;;;;;;;;11.79;70.16;101605.91;5021927;28;19921;-86
2023/01/06 04:20:34;;;;;;;;;;;;;;;11.75;67.97;101597.53;5024624;28;19917;-87
2023/01/06 04:23:28;;;;;;;;;;;;;;;11.74;66.72;101593.19;5072094;28;19917;-86
2023/01/06 04:26:13;;;;;;;;;;;;;;;11.72;66.67;101592.66;5041961;28;19917;-87
2023/01/06 04:29:04;;;;;;;;;;;;;;;11.69;65.83;101589.72;5016828;28;19918;-87
2023/01/06 04:31:49;;;;;;;;;;;;;;;11.75;67.30;101597.53;5039493;28;19917;-86
2023/01/06 04:34:33;;;;;;;;;;;;;;;11.66;64.55;101601.22;5036749;28;19917;-85
2023/01/06 04:37:18;;;;;;;;;;;;;;;11.51;61.79;101596.84;5037208;28;19921;-84
2023/01/06 04:40:03;;;;;;;;;;;;;;;11.59;66.33;101604.31;5054229;28;20396;-85
2023/01/06 04:43:03;;;;;;;;;;;;;;;11.60;66.28;101614.13;5065671;28;19917;-85
2023/01/06 04:45:48;;;;;;;;;;;;;;;11.44;62.13;101612.78;5030882;28;19917;-85
2023/01/06 04:48:32;;;;;;;;;;;;;;;11.36;61.25;101610.75;5060157;28;20400;-85
2023/01/06 04:51:17;;;;;;;;;;;;;;;11.29;61.75;101605.66;5031371;28;20384;-86
2023/01/06 04:54:01;;;;;;;;;;;;;;;11.28;61.52;101608.69;5047133;28;19917;-86
2023/01/06 04:56:45;;;;;;;;;;;;;;;11.23;61.91;101611.47;5030507;28;19917;-84
2023/01/06 04:59:30;;;;;;;;;;;;;;;11.32;63.82;101618.72;5036918;28;19921;-85
2023/01/06 05:02:14;;;;;;;;;;;;;;;11.56;70.54;101626.72;5035446;28;19917;-84
2023/01/06 05:04:59;;;;;;;;;;;;;;;11.50;67.86;101623.28;5038183;28;19916;-86
2023/01/06 05:07:43;;;;;;;;;;;;;;;11.59;70.88;101632.38;5065438;28;19917;-86
2023/01/06 05:10:28;;;;;;;;;;;;;;;11.76;74.37;101637.28;5018543;28;20328;-86
2023/01/06 05:13:12;;;;;;;;;;;;;;;11.66;69.55;101632.00;5023663;28;19925;-84
2023/01/06 05:15:56;;;;;;;;;;;;;;;11.45;64.47;101636.19;5023405;28;19921;-85
2023/01/06 05:18:41;;;;;;;;;;;;;;;11.40;63.16;101625.38;5020258;28;19921;-86
2023/01/06 05:21:28;;;;;;;;;;;;;;;11.49;66.70;101637.19;5022168;28;19921;-87
2023/01/06 05:24:13;;;;;;;;;;;;;;;11.45;66.55;101641.63;5039937;28;20530;-87
2023/01/06 05:26:57;;;;;;;;;;;;;;;11.49;65.40;101643.44;5029968;28;19917;-87
2023/01/06 05:29:42;;;;;;;;;;;;;;;11.44;64.29;101640.00;5077956;28;19928;-87
2023/01/06 05:32:27;;;;;;;;;;;;;;;11.41;64.84;101654.22;5055142;28;20391;-85
2023/01/06 05:35:11;;;;;;;;;;;;;;;11.38;63.64;101646.63;5039649;28;20388;-85
2023/01/06 05:37:56;;;;;;;;;;;;;;;11.34;62.23;101651.88;5038246;28;19921;-86
2023/01/06 05:40:40;;;;;;;;;;;;;;;11.33;63.41;101658.41;5036780;28;19925;-85
2023/01/06 05:43:25;;;;;;;;;;;;;;;11.39;65.19;101659.16;5042485;28;20300;-86
2023/01/06 05:46:10;;;;;;;;;;;;;;;11.43;65.02;101666.44;5023481;28;19917;-85
2023/01/06 05:48:55;;;;;;;;;;;;;;;11.28;63.19;101663.13;5035574;28;19917;-86
2023/01/06 05:51:40;;;;;;;;;;;;;;;11.28;64.17;101665.84;5070805;28;19917;-85
2023/01/06 05:54:24;;;;;;;;;;;;;;;11.28;63.45;101669.41;5043165;28;19917;-86
2023/01/06 05:57:10;;;;;;;;;;;;;;;11.28;64.06;101666.66;5037455;28;20292;-84
2023/01/06 05:59:55;;;;;;;;;;;;;;;11.23;63.05;101676.81;5044454;28;20307;-86
2023/01/06 06:02:39;;;;;;;;;;;;;;;11.30;63.22;101680.00;5073098;28;19917;-86
2023/01/06 06:05:24;;;;;;;;;;;;;;;11.31;63.96;101682.44;5046825;28;19917;-86
2023/01/06 06:08:09;;;;;;;;;;;;;;;11.31;64.27;101687.88;5056967;28;19909;-87
2023/01/06 06:10:54;;;;;;;;;;;;;;;11.22;62.76;101686.13;5054634;28;19925;-87
2023/01/06 06:13:47;;;;;;;;;;;;;;;11.23;63.36;101690.44;5053028;28;19925;-86
2023/01/06 06:16:32;;;;;;;;;;;;;;;11.26;64.95;101687.97;5085310;28;19929;-87
2023/01/06 06:19:17;;;;;;;;;;;;;;;11.25;64.42;101688.25;5080852;28;19925;-86
2023/01/06 06:22:09;;;;;;;;;;;;;;;11.26;65.99;101687.16;5080651;28;19925;-86
2023/01/06 06:24:55;;;;;;;;;;;;;;;11.24;63.78;101689.34;5059380;28;19929;-86
2023/01/06 06:27:40;;;;;;;;;;;;;;;11.15;62.50;101687.31;5079700;28;19925;-87
2023/01/06 06:30:25;;;;;;;;;;;;;;;11.17;63.25;101694.38;5051133;28;19926;-85
2023/01/06 06:33:10;;;;;;;;;;;;;;;11.28;66.26;101695.81;5078746;28;19925;-87
2023/01/06 06:35:56;;;;;;;;;;;;;;;11.17;63.98;101699.81;5039273;28;19926;-85
2023/01/06 06:38:42;;;;;;;;;;;;;;;11.12;63.15;101698.75;5048177;28;19921;-86
2023/01/06 06:41:27;;;;;;;;;;;;;;;11.10;63.29;101706.44;5059305;28;19917;-87
2023/01/06 06:44:12;;;;;;;;;;;;;;;11.11;63.52;101697.16;5029408;28;19930;-86
2023/01/06 06:46:57;;;;;;;;;;;;;;;11.04;63.29;101707.59;5067514;28;19925;-86
2023/01/06 06:49:42;;;;;;;;;;;;;;;11.01;62.78;101707.38;5052883;28;19925;-86
2023/01/06 06:52:26;;;;;;;;;;;;;;;11.08;64.47;101713.25;5082236;28;19925;-85
2023/01/06 06:55:11;;;;;;;;;;;;;;;11.07;64.18;101712.44;5051856;28;19925;-86
2023/01/06 06:57:55;;;;;;;;;;;;;;;11.07;64.84;101714.38;5046380;28;19925;-86
2023/01/06 07:00:40;;;;;;;;;;;;;;;11.17;68.01;101718.88;5049073;28;19925;-85
2023/01/06 07:03:24;;;;;;;;;;;;;;;11.22;67.58;101724.25;5048009;28;19917;-86
2023/01/06 07:06:11;;;;;;;;;;;;;;;11.07;63.65;101733.44;5044556;28;20555;-84
2023/01/06 07:11:51;;;;;;;;;;;;;;;9.92;65.71;101733.63;5088661;23;19933;-80
2023/01/06 07:14:36;;;;;;;;;;;;;;;9.56;66.87;101730.38;5004985;28;19925;-78
2023/01/06 07:17:30;;;;;;;;;;;;;;;9.41;68.13;101732.13;4998327;28;19910;-82
2023/01/06 08:07:30;;;;;;;;;;;;;;;8.97;70.86;101810.81;5751602;23;19926;-85
2023/01/06 08:44:59;;;;;;;;;;;;;;;9.29;70.59;101840.25;5540311;23;19910;-89
2023/01/06 08:50:46;;;;;;;;;;;;;;;9.37;70.72;101839.66;5516934;23;19918;-89
2023/01/06 08:53:32;;;;;;;;;;;;;;;9.42;71.04;101847.78;5046133;28;19909;-92
2023/01/06 08:56:19;;;;;;;;;;;;;;;9.41;70.57;101843.44;5040776;28;19913;-90
2023/01/06 08:59:04;;;;;;;;;;;;;;;9.40;70.86;101849.13;5041895;28;19926;-90
2023/01/06 09:01:49;;;;;;;;;;;;;;;9.52;71.16;101862.38;5096391;23;19925;-92
2023/01/06 09:04:34;;;;;;;;;;;;;;;9.47;70.79;101862.41;5027794;28;19925;-91
2023/01/06 09:07:19;;;;;;;;;;;;;;;9.55;70.48;101881.63;5032251;28;19918;-89
2023/01/06 09:10:03;;;;;;;;;;;;;;;9.58;70.91;101866.69;5035364;28;19905;-89
2023/01/06 09:12:48;;;;;;;;;;;;;;;9.55;70.87;101869.97;5018690;28;19929;-87
2023/01/06 09:15:33;;;;;;;;;;;;;;;9.72;70.40;101873.13;5024836;28;19926;-88
2023/01/06 09:18:18;;;;;;;;;;;;;;;9.64;70.60;101874.53;5014852;28;19926;-88
2023/01/06 09:21:03;;;;;;;;;;;;;;;9.82;69.96;101873.88;5013735;28;19926;-86
2023/01/06 09:23:48;;;;;;;;;;;;;;;9.87;69.74;101879.28;5015454;28;19917;-86
2023/01/06 09:26:33;;;;;;;;;;;;;;;10.03;69.58;101873.75;5017196;28;19914;-87
2023/01/06 09:29:18;;;;;;;;;;;;;;;9.95;69.63;101879.78;5003082;28;19930;-85
2023/01/06 10:46:55;;;;;;;;;;;;;;;11.39;65.99;101845.16;5010947;28;19936;-83
2023/01/06 10:49:40;;;;;;;;;;;;;;;11.35;65.30;101838.66;4996363;28;19922;-84
2023/01/06 10:52:25;;;;;;;;;;;;;;;11.46;64.87;101834.72;4996904;28;20494;-82
2023/01/06 10:55:29;;;;;;;;;;;;;;;11.51;65.17;101825.66;5000391;28;19918;-85
2023/01/06 10:58:17;;;;;;;;;;;;;;;11.13;64.97;101822.06;4992945;28;20124;-84
2023/01/06 11:01:09;;;;;;;;;;;;;;;10.85;66.00;101828.41;4998064;28;19921;-84
2023/01/06 11:04:11;;;;;;;;;;;;;;;11.17;65.74;101819.59;5004475;28;19918;-85
2023/01/06 11:06:55;;;;;;;;;;;;;;;11.52;63.44;101822.66;4997117;28;19918;-84
2023/01/06 11:09:46;;;;;;;;;;;;;;;11.60;63.70;101815.72;5010205;28;19925;-87
2023/01/06 11:12:31;;;;;;;;;;;;;;;11.51;62.21;101809.31;5002055;28;19918;-87
2023/01/06 11:15:22;;;;;;;;;;;;;;;11.63;60.88;101801.50;4996078;28;20309;-89
2023/01/06 11:18:21;;;;;;;;;;;;;;;11.61;61.22;101797.47;5004080;28;19921;-85
2023/01/06 11:21:08;;;;;;;;;;;;;;;11.78;60.79;101793.13;4980960;28;19922;-85
2023/01/06 11:24:08;;;;;;;;;;;;;;;11.83;61.13;101792.25;4974294;28;19918;-83
2023/01/06 11:27:14;;;;;;;;;;;;;;;11.87;60.61;101790.53;4981468;28;19918;-84
2023/01/06 11:30:28;;;;;;;;;;;;;;;11.96;60.77;101788.75;5002022;28;19918;-84
2023/01/06 11:33:21;;;;;;;;;;;;;;;11.83;61.04;101787.59;4993400;28;19922;-86
2023/01/06 11:36:08;;;;;;;;;;;;;;;11.39;60.86;101787.97;4994971;28;19918;-88
2023/01/06 11:38:57;;;;;;;;;;;;;;;11.27;60.60;101794.97;4985824;28;19922;-83
2023/01/06 11:41:46;;;;;;;;;;;;;;;11.35;60.95;101791.56;5006334;28;19926;-83
2023/01/06 11:44:42;;;;;;;;;;;;;;;11.28;61.20;101781.03;4999507;28;19919;-84
2023/01/06 11:47:27;;;;;;;;;;;;;;;11.18;61.14;101788.53;4989249;28;19926;-84
2023/01/06 11:50:18;;;;;;;;;;;;;;;11.25;61.20;101786.25;4996321;28;19918;-87
2023/01/06 11:53:14;;;;;;;;;;;;;;;11.11;61.68;101778.81;4997283;28;19940;-90
2023/01/06 11:56:01;;;;;;;;;;;;;;;11.30;61.93;101770.66;4992499;28;19918;-84
2023/01/06 11:59:05;;;;;;;;;;;;;;;11.44;61.37;101768.00;4994552;28;19922;-84
2023/01/06 12:01:54;;;;;;;;;;;;;;;11.47;60.41;101767.44;4991955;28;19926;-85
2023/01/06 12:04:41;;;;;;;;;;;;;;;11.49;60.82;101767.94;5010517;28;19918;-84
2023/01/06 12:07:31;;;;;;;;;;;;;;;11.42;60.82;101764.78;4993590;28;19918;-83
2023/01/06 12:10:19;;;;;;;;;;;;;;;11.56;60.06;101762.94;4998303;28;19918;-83
2023/01/06 12:13:04;;;;;;;;;;;;;;;11.35;60.32;101753.44;5001905;28;20396;-84
2023/01/06 12:15:56;;;;;;;;;;;;;;;11.36;61.66;101747.72;5012562;28;19917;-83
2023/01/06 12:18:41;;;;;;;;;;;;;;;11.56;60.43;101735.69;5010665;28;19926;-83
2023/01/06 12:21:29;;;;;;;;;;;;;;;11.46;60.33;101741.28;5002207;28;20443;-85
2023/01/06 12:24:15;;;;;;;;;;;;;;;11.56;60.76;101738.41;5028306;28;19917;-87
2023/01/06 12:27:02;;;;;;;;;;;;;;;11.37;62.23;101726.75;5010058;28;19919;-84
2023/01/06 12:29:47;;;;;;;;;;;;;;;11.28;62.67;101720.31;5001379;28;19919;-85
2023/01/06 12:32:36;;;;;;;;;;;;;;;11.15;62.63;101721.88;4997592;28;19918;-84
2023/01/06 12:35:25;;;;;;;;;;;;;;;11.28;62.54;101731.19;5001994;28;19926;-86
2023/01/06 12:38:20;;;;;;;;;;;;;;;10.79;62.59;101727.00;5016314;28;19918;-84
2023/01/06 12:41:27;;;;;;;;;;;;;;;10.88;63.17;101730.66;5006680;28;19922;-87
2023/01/06 12:44:21;;;;;;;;;;;;;;;11.12;61.94;101723.25;5004914;28;19918;-84
2023/01/06 12:47:18;;;;;;;;;;;;;;;11.02;61.58;101722.63;5002225;28;19926;-84
2023/01/06 12:50:09;;;;;;;;;;;;;;;10.89;63.37;101723.31;4999320;28;19915;-87
2023/01/06 12:53:00;;;;;;;;;;;;;;;10.73;63.96;101711.81;4985532;28;19931;-84
2023/01/06 12:55:48;;;;;;;;;;;;;;;10.40;64.63;101718.22;4984485;28;19910;-87
2023/01/06 12:58:36;;;;;;;;;;;;;;;10.17;65.82;101720.63;4994541;28;19933;-87
2023/01/06 13:01:36;;;;;;;;;;;;;;;10.39;65.31;101727.47;4995652;28;19914;-89
2023/01/06 13:04:33;;;;;;;;;;;;;;;10.57;64.29;101729.44;4995202;28;19926;-88
2023/01/06 13:07:18;;;;;;;;;;;;;;;10.34;65.28;101727.53;4999569;28;19926;-87
2023/01/06 13:10:21;;;;;;;;;;;;;;;10.46;65.47;101719.78;4994143;28;19926;-91
2023/01/06 13:13:19;;;;;;;;;;;;;;;10.43;65.65;101720.34;4998702;28;19926;-86
2023/01/06 13:16:07;;;;;;;;;;;;;;;10.24;65.83;101723.00;4986491;28;19918;-89
2023/01/06 13:18:55;;;;;;;;;;;;;;;10.17;65.87;101717.09;4997882;28;19926;-87
2023/01/06 13:21:41;;;;;;;;;;;;;;;9.98;67.01;101710.75;4988444;28;19910;-86
2023/01/06 13:24:47;;;;;;;;;;;;;;;9.96;66.69;101712.94;4987523;28;19926;-88
2023/01/06 13:27:46;;;;;;;;;;;;;;;10.27;65.83;101706.94;4989662;28;19911;-91
2023/01/06 13:30:52;;;;;;;;;;;;;;;10.01;66.35;101702.00;5004993;28;19914;-89
2023/01/06 13:33:55;;;;;;;;;;;;;;;9.91;65.77;101702.09;5016381;28;19926;-87
2023/01/06 13:36:49;;;;;;;;;;;;;;;9.96;65.98;101700.16;5010823;28;19925;-83
2023/01/06 13:39:38;;;;;;;;;;;;;;;10.24;65.38;101701.28;4992947;28;19926;-88
2023/01/06 13:42:32;;;;;;;;;;;;;;;9.86;66.09;101698.34;4991767;28;19922;-85
2023/01/06 13:45:25;;;;;;;;;;;;;;;9.85;66.29;101706.81;4994829;28;19922;-84
2023/01/06 13:48:16;;;;;;;;;;;;;;;10.01;65.44;101710.97;4998263;28;19918;-92
2023/01/06 13:51:02;;;;;;;;;;;;;;;10.40;65.10;101716.31;4997648;28;19902;-84
2023/01/06 13:53:49;;;;;;;;;;;;;;;10.49;65.20;101717.28;5001533;28;19918;-86
2023/01/06 13:56:34;;;;;;;;;;;;;;;10.61;63.75;101711.44;4995961;28;19910;-80
2023/01/06 13:59:20;;;;;;;;;;;;;;;10.76;63.48;101713.97;4996639;28;19906;-85
2023/01/06 14:02:24;;;;;;;;;;;;;;;10.78;63.58;101719.94;4990900;28;19918;-80
2023/01/06 14:05:12;;;;;;;;;;;;;;;10.44;64.85;101725.50;4992062;28;19902;-82
2023/01/06 14:08:01;;;;;;;;;;;;;;;10.36;65.25;101728.06;4998199;28;19918;-80
2023/01/06 14:10:53;;;;;;;;;;;;;;;10.36;65.85;101722.63;4992794;28;19918;-81
2023/01/06 14:13:39;;;;;;;;;;;;;;;10.18;65.34;101732.31;4986467;28;19918;-79
2023/01/06 14:16:39;;;;;;;;;;;;;;;10.34;64.88;101728.34;5000361;28;19922;-79
2023/01/06 14:19:24;;;;;;;;;;;;;;;10.00;66.27;101722.97;5002428;28;19918;-81
2023/01/06 14:22:13;;;;;;;;;;;;;;;10.21;65.71;101721.66;4995494;28;19922;-80
2023/01/06 14:25:01;;;;;;;;;;;;;;;10.33;65.37;101720.47;4999949;28;19902;-78
2023/01/06 14:27:45;;;;;;;;;;;;;;;10.50;65.58;101712.66;4995349;28;20452;-80
2023/01/06 14:30:31;;;;;;;;;;;;;;;10.45;64.40;101712.72;5002764;28;19918;-80
2023/01/06 14:33:31;;;;;;;;;;;;;;;10.53;65.20;101715.59;5013865;28;19906;-81
2023/01/06 14:36:16;;;;;;;;;;;;;;;10.25;66.17;101711.88;4981197;28;19922;-80
2023/01/06 14:39:03;;;;;;;;;;;;;;;10.23;65.69;101708.63;5011183;28;19918;-80
2023/01/06 14:41:53;;;;;;;;;;;;;;;10.45;64.70;101715.44;4991655;28;19918;-79
2023/01/06 14:44:43;;;;;;;;;;;;;;;10.34;65.25;101714.75;4999016;28;19917;-84
2023/01/06 14:47:55;;;;;;;;;;;;;;;10.15;65.91;101717.38;5900452;23;19937;-82
2023/01/06 14:50:47;;;;;;;;;;;;;;;10.40;65.49;101718.22;5018935;28;19914;-83
2023/01/06 14:53:37;;;;;;;;;;;;;;;10.33;65.18;101713.13;5022352;28;19905;-83
2023/01/06 14:56:24;;;;;;;;;;;;;;;10.22;66.00;101714.31;5007120;28;19918;-80
2023/01/06 14:59:12;;;;;;;;;;;;;;;10.41;65.65;101723.38;5014474;28;19926;-81
2023/01/06 15:01:59;;;;;;;;;;;;;;;10.39;65.81;101716.59;5013427;28;19917;-79
2023/01/06 15:04:43;;;;;;;;;;;;;;;10.37;65.48;101716.88;5015244;28;19917;-79
2023/01/06 15:07:29;;;;;;;;;;;;;;;10.32;66.63;101725.09;4998692;28;19918;-79
2023/01/06 15:10:20;;;;;;;;;;;;;;;10.11;67.15;101721.75;5002449;28;19918;-81
2023/01/06 15:13:22;;;;;;;;;;;;;;;10.13;67.85;101716.84;5002326;28;19922;-80
2023/01/06 15:16:07;;;;;;;;;;;;;;;10.23;66.86;101726.81;5004275;28;20392;-82
2023/01/06 15:18:53;;;;;;;;;;;;;;;10.25;66.04;101717.31;5013913;28;19917;-82
2023/01/06 15:21:39;;;;;;;;;;;;;;;10.27;66.02;101715.09;5015597;28;20381;-81
2023/01/06 15:24:30;;;;;;;;;;;;;;;10.25;66.89;101711.06;5022794;28;19918;-82
2023/01/06 15:27:16;;;;;;;;;;;;;;;10.29;66.19;101712.91;5030042;28;19921;-82
2023/01/06 15:30:00;;;;;;;;;;;;;;;10.33;65.89;101715.03;5011055;28;19922;-82
2023/01/06 15:32:46;;;;;;;;;;;;;;;10.26;66.42;101713.47;5009212;28;19918;-80
2023/01/06 15:35:31;;;;;;;;;;;;;;;10.28;66.09;101705.84;5021865;28;20332;-80
2023/01/06 15:38:37;;;;;;;;;;;;;;;10.24;66.79;101710.25;5031252;28;19917;-78
2023/01/06 15:41:31;;;;;;;;;;;;;;;10.25;67.50;101711.88;5028716;28;19921;-81
2023/01/06 15:44:22;;;;;;;;;;;;;;;10.33;67.56;101715.03;5033648;28;19917;-80
2023/01/06 15:47:10;;;;;;;;;;;;;;;10.25;67.12;101716.50;5032884;28;19918;-79
2023/01/06 15:49:55;;;;;;;;;;;;;;;10.33;67.39;101715.84;5036214;28;19921;-81
2023/01/06 15:52:45;;;;;;;;;;;;;;;10.31;66.91;101719.97;5020926;28;19917;-80
2023/01/06 15:55:34;;;;;;;;;;;;;;;10.31;66.64;101719.97;5021090;28;19917;-80
2023/01/06 15:58:21;;;;;;;;;;;;;;;10.13;66.79;101725.00;5032093;28;19918;-82
2023/01/06 16:01:07;;;;;;;;;;;;;;;10.25;67.61;101724.66;5031452;28;20400;-81
2023/01/06 16:03:56;;;;;;;;;;;;;;;10.21;68.06;101718.94;5037352;28;19917;-80
2023/01/06 16:06:42;;;;;;;;;;;;;;;10.22;68.39;101723.28;4997087;28;19918;-82
2023/01/06 16:09:34;;;;;;;;;;;;;;;10.19;68.38;101728.50;4989674;28;19918;-80
2023/01/06 16:12:19;;;;;;;;;;;;;;;10.42;66.24;101726.88;4995371;28;19918;-82
2023/01/06 16:15:23;;;;;;;;;;;;;;;10.25;66.82;101730.91;5017658;28;19922;-82
2023/01/06 16:18:09;;;;;;;;;;;;;;;10.33;65.49;101725.91;5014022;28;19925;-80
2023/01/06 16:20:54;;;;;;;;;;;;;;;10.31;65.99;101737.06;5020786;28;19921;-83
2023/01/06 16:23:39;;;;;;;;;;;;;;;10.26;66.15;101740.66;5032387;28;19901;-82
2023/01/06 16:26:25;;;;;;;;;;;;;;;10.25;66.13;101741.75;5014377;28;19922;-79
2023/01/06 16:29:34;;;;;;;;;;;;;;;10.23;66.99;101743.94;5001041;28;19918;-82
2023/01/06 16:32:23;;;;;;;;;;;;;;;10.14;67.43;101744.84;4999471;28;19922;-82
2023/01/06 16:35:15;;;;;;;;;;;;;;;10.16;67.55;101750.81;5022599;28;19917;-81
2023/01/06 16:38:00;;;;;;;;;;;;;;;10.18;67.48;101754.88;5019327;28;19918;-80
2023/01/06 16:40:46;;;;;;;;;;;;;;;10.27;66.65;101747.72;5017475;28;19926;-81
2023/01/06 16:43:31;;;;;;;;;;;;;;;10.21;66.14;101748.84;5009596;28;19918;-82
2023/01/06 16:46:20;;;;;;;;;;;;;;;10.18;66.73;101754.06;5073517;23;19926;-76
2023/01/06 16:49:08;;;;;;;;;;;;;;;10.20;66.60;101752.69;5014724;28;19926;-76
2023/01/06 16:51:53;;;;;;;;;;;;;;;10.23;66.41;101746.66;5010034;28;19918;-76
2023/01/06 16:54:37;;;;;;;;;;;;;;;10.07;65.68;101745.16;5017154;28;19918;-76
2023/01/06 16:57:22;;;;;;;;;;;;;;;10.16;65.95;101754.34;4998781;28;20012;-76
2023/01/06 17:00:12;;;;;;;;;;;;;;;10.25;66.87;101749.91;4982507;28;19922;-76
2023/01/06 17:02:56;;;;;;;;;;;;;;;10.46;66.56;101755.16;4986349;28;19918;-76
2023/01/06 17:05:41;;;;;;;;;;;;;;;10.54;66.12;101759.94;4987582;28;19918;-77
2023/01/06 17:08:35;;;;;;;;;;;;;;;10.64;66.48;101757.09;4991890;28;19918;-75
2023/01/06 17:11:22;;;;;;;;;;;;;;;10.68;65.89;101753.50;4996194;28;20285;-77
2023/01/06 17:14:15;;;;;;;;;;;;;;;10.63;65.68;101755.47;4994536;28;20400;-76
2023/01/06 17:17:00;;;;;;;;;;;;;;;10.72;65.74;101759.16;4995023;28;19918;-77